Tiempo atmosférico en la estación meteorológica de Cervantes, Lugo (1020 m.)



Fecha
DESCASC
Temp. máxima en grados centígrados (hora)
DESCASC
Temp. mínima en grados centígrados (hora)
DESCASC
Temp. media en grados centígrados
DESCASC
Racha de viento máxima en m/sg (hora)
DESCASC
Velocidad máxima media en intervalos de 10 minutos(hora)
DESCASC
Precipitaciones diarias en mm
DESCASC
Precipitaciones de 00:00 a 06:00 en mm
DESCASC
Precipitaciones de 06:00 a 12:00 en mm
DESCASC
Precipitaciones de 12:00 a 18:00 en mm
DESCASC
Precipitaciones de 18:00 a 24:00 en mm
DESCASC
21-02-2021 6.9 (04:50) -0.1 (10:00) 3.4 16.67 (05:10) 7.78 (05:10) 22 4.2 15 1.2 1.6
20-02-2021 9.2 (00:40) 5.5 (23:20) 7.3 24.17 (04:50) 12.78 (13:00) 18.8 0 0.4 5.4 13
19-02-2021 9.9 (12:10) 5.3 (01:10) 7.6 21.11 (20:30) 10.28 (20:30) 0 0 0 0 0
18-02-2021 8.2 (00:50) 4.2 (00:00) 6.2 21.11 (03:40) 6.67 (03:10) 26.8 13.2 11.6 1.8 0.2
17-02-2021 11 (14:30) 3.1 (00:00) 7 13.89 (13:20) 6.11 (11:50) 16 0 0 0 16
16-02-2021 10.1 (00:00) 4.4 (00:00) 7.3 14.17 (07:40) 7.5 (00:20) 7.8 0 6.6 1.2 0
15-02-2021 13.8 (16:30) 7.9 (00:00) 10.9 16.39 (14:00) 9.72 (14:00) 0 0 0 0 0
14-02-2021 11.7 (16:50) 7 (00:00) 9.3 15.28 (09:10) 7.22 (09:10) 0 0 0 0 0
13-02-2021 10.3 (14:00) 4.4 (00:00) 7.4 8.06 (11:50) 3.61 (07:00) 0.8 0 0.8 0 0
12-02-2021 10.6 (17:10) 4.6 (00:00) 7.6 11.39 (06:20) 4.44 (04:00) 11.8 4.2 7.4 0.2 0
11-02-2021 11.4 (15:30) 4.1 (00:00) 7.7 10.83 (16:10) 5.56 (13:30) 11.8 1.2 0 0.4 10.2
10-02-2021 8.1 (16:30) 0.5 (00:00) 4.3 8.61 (09:40) 4.17 (05:10) 8.2 6.8 0 0 1.4
09-02-2021 4.4 (14:30) -0.2 (00:00) 2.1 13.89 (13:10) 5.83 (03:20) 30.4 4.2 14 6.2 6
08-02-2021 4.8 (16:40) 1.9 (00:00) 3.4 12.22 (16:00) 5 (00:10) 18.6 6.2 4.6 5.4 2.4
07-02-2021 3.5 (18:00) -3 (-00:0) 0.3 9.17 (17:50) 5.56 (19:20) 8.6 0.2 0.2 3.6 4.6
06-02-2021 2.8 (00:00) -1.1 (-00:0) 0.8 8.33 (13:40) 3.89 (13:30) 8.4 4.8 2.4 1 0.2
05-02-2021 4.7 (13:10) 1.6 (00:00) 3.1 5.56 (20:40) 2.5 (23:30) 8.8 0 0 1 7.8
04-02-2021 6.6 (16:50) 3.9 (00:00) 5.3 8.61 (09:40) 4.72 (08:30) 0 0 0 0 0
03-02-2021 8.8 (00:00) 4 (00:00) 6.4 17.78 (03:20) 6.11 (00:40) 18 9.8 3.6 0.6 4
02-02-2021 9.6 (16:00) 6.8 (00:00) 8.2 14.17 (07:20) 7.22 (16:20) 20.6 1.2 1.8 5 12.6
01-02-2021 9.8 (12:50) 6.3 (00:00) 8.1 13.61 (00:40) 6.11 (00:20) 0.6 0 0.2 0 0.4
31-01-2021 11.5 (15:00) 3.4 (00:00) 7.5 16.94 (21:00) 6.94 (20:30) 11.4 2.6 7.6 0.2 1
30-01-2021 8.1 (00:00) 1.4 (00:00) 4.8 16.11 (16:30) 6.67 (06:50) 19 1.6 4.2 5.6 7.6
29-01-2021 11.5 (13:40) 7.9 (00:00) 9.7 11.67 (19:20) 5.56 (17:50) 0 0 0 0 0
28-01-2021 14.2 (14:00) 9 (00:00) 11.6 12.5 (16:30) 4.72 (16:50) 0.2 0 0 0 0.2
27-01-2021 14 (13:40) 9.6 (00:00) 11.8 8.61 (19:30) 3.89 (18:50) 0.2 0.2 0 0 0
26-01-2021 11.4 (14:50) 7.6 (00:00) 9.5 6.39 (22:30) 2.78 (21:30) 6.6 1.8 1.2 0.6 3
25-01-2021 9.2 (06:50) 4.4 (00:00) 6.8 12.5 (04:40) 5 (02:00) 30 5.2 8.8 13.6 2.4

Gráficas

Temp. máximas Temp. mínimas Temp. medias Precipitaciones Rachas de viento máximas Velocidades máximas media en intervalos de 10 minutos

Datos horarios

Fecha y hora oficial Temperatura (ºC) Velocidad del viento (km/h) Dirección del viento Racha (km/h) Dirección de racha Precipitación (mm) Presión (hPa) Tendencia (hPa) Humedad (%)
2021-02-23 23:00:00 7.6 23 Sur 46 Sur 0 -- -- 53
2021-02-23 22:00:00 7.9 28 Sur 51 Sur 0 -- -- 58
2021-02-23 21:00:00 8.7 17 Sur 37 Sudoeste 0 -- -- 60
2021-02-23 20:00:00 9.8 18 Sudoeste 33 Sudoeste 0 -- -- 58
2021-02-23 19:00:00 10.3 16 Sudoeste 40 Sur 0 -- -- 56
2021-02-23 18:00:00 10.8 21 Sudoeste 44 Sur 0 -- -- 54
2021-02-23 17:00:00 11.6 27 Sur 48 Sur 0 -- -- 51
2021-02-23 16:00:00 11.5 22 Sudoeste 49 Sur 0 -- -- 50
2021-02-23 15:00:00 10.3 24 Sur 49 Sur 0 -- -- 49
2021-02-23 14:00:00 9.9 24 Sur 55 Sur 0 -- -- 50
2021-02-23 13:00:00 9.2 26 Sudoeste 55 Sudeste 0 -- -- 49
2021-02-23 12:00:00 8.3 27 Sur 60 Sur 0 -- -- 46
2021-02-23 11:00:00 8.9 21 Sudoeste 45 Sudeste 0 -- -- 43
2021-02-23 10:00:00 6.9 27 Sudoeste 59 Sur 0 -- -- 45
2021-02-23 09:00:00 5.9 19 Sudoeste 47 Sudoeste 0 -- -- 45
2021-02-23 08:00:00 5.1 23 Sudoeste 50 Sur 0 -- -- 48
2021-02-23 07:00:00 5.1 21 Sudoeste 59 Sur 0 -- -- 48
2021-02-23 06:00:00 5.2 17 Sur 54 Sudoeste 0 -- -- 48
2021-02-23 05:00:00 5.1 27 Sur 52 Sur 0 -- -- 48
2021-02-23 04:00:00 5.3 24 Sur 51 Sur 0 -- -- 49
2021-02-23 03:00:00 5.4 23 Sur 51 Sur 0 -- -- 49
2021-02-23 02:00:00 5.4 22 Sudoeste 50 Sudoeste 0 -- -- 51
2021-02-23 01:00:00 5.2 21 Sudoeste 41 Sur 0 -- -- 56
2021-02-23 00:00:00 5.5 13 Sudoeste 37 Sur 0 -- -- 56
2021-02-22 23:00:00 5.8 15 Sudoeste 32 Sudoeste 0 -- -- 56
2021-02-22 22:00:00 5.5 15 Sudoeste 27 Sudoeste 0 -- -- 53
2021-02-22 21:00:00 5.8 13 Sudoeste 24 Sudoeste 0 -- -- 44
2021-02-22 20:00:00 6.1 14 Sudoeste 21 Sudoeste 0 -- -- 39
2021-02-22 19:00:00 6.4 7 Oeste 13 Sur 0 -- -- 45
2021-02-22 18:00:00 8.1 6 Sudoeste 14 Sudoeste 0 -- -- 37
2021-02-22 17:00:00 9.9 9 Sudoeste 18 Sur 0 -- -- 31
2021-02-22 16:00:00 9.7 10 Sur 23 Sur 0 -- -- 41
2021-02-22 15:00:00 9.1 10 Sur 23 Sur 0 -- -- 48
2021-02-22 14:00:00 8.2 10 Sur 23 Sur 0 -- -- 44
2021-02-22 13:00:00 6.9 12 Sur 21 Sur 0 -- -- 54
2021-02-22 12:00:00 6.5 10 Sur 21 Sur 0 -- -- 59
2021-02-22 11:00:00 4.9 9 Sur 15 Sur 0 -- -- 70
2021-02-22 10:00:00 4.7 5 Sur 9 Sur 0 -- -- 68
2021-02-22 09:00:00 1.1 0 Calma 10 Norte 0 -- -- 85
2021-02-22 08:00:00 -0.3 0 Calma 7 Norte 0 -- -- 87
2021-02-22 07:00:00 0.2 4 Norte 9 Noroeste 0 -- -- 85
2021-02-22 06:00:00 0.9 7 Norte 13 Norte 0 -- -- 86
2021-02-22 05:00:00 0.8 5 Norte 14 Norte 0 -- -- 88
2021-02-22 04:00:00 0.6 6 Norte 13 Norte 0 -- -- 87
2021-02-22 03:00:00 1.1 6 Norte 13 Nordeste 0 -- -- 87
2021-02-22 02:00:00 1.1 4 Nordeste 18 Noroeste 0.2 -- -- 88
2021-02-22 01:00:00 1.2 5 Norte 16 Norte 0 -- -- 87
2021-02-22 00:00:00 0.9 6 Norte 15 Norte 0.2 -- -- 88
2021-02-21 23:00:00 1.6 4 Norte 21 Nordeste 0 -- -- 89
2021-02-21 22:00:00 1.7 5 Norte 24 Nordeste 0 -- -- 89
2021-02-21 21:00:00 1.3 8 Norte 17 Norte 0.8 -- -- 90
2021-02-21 20:00:00 1.5 3 Nordeste 14 Norte 0.4 -- -- 91
2021-02-21 19:00:00 1.9 5 Norte 9 Nordeste 0.2 -- -- 91
2021-02-21 18:00:00 2.1 4 Nordeste 10 Noroeste 0 -- -- 90
2021-02-21 17:00:00 2.6 2 Nordeste 9 Nordeste 0 -- -- 90
2021-02-21 16:00:00 2 6 Norte 15 Nordeste 0 -- -- 90
2021-02-21 15:00:00 1.5 4 Norte 20 Noroeste 0.2 -- -- 91
2021-02-21 14:00:00 1.9 7 Norte 13 Norte 0 -- -- 89
2021-02-21 13:00:00 1.6 3 Norte 6 Noroeste 1 -- -- 87
2021-02-21 12:00:00 0.5 0 Calma 10 Norte 2.2 -- -- 91
2021-02-21 11:00:00 -0.1 3 Este 24 Noroeste 2.6 -- -- 91
2021-02-21 10:00:00 -0.1 17 Noroeste 31 Noroeste 2.6 -- -- 90
2021-02-21 09:00:00 3 11 Oeste 35 Sur 3.2 -- -- 86
2021-02-21 08:00:00 3.8 14 Sur 47 Sudoeste 3 -- -- 85
2021-02-21 07:00:00 5 24 Sudoeste 57 Sudoeste 1.4 -- -- 74
2021-02-21 06:00:00 5.1 17 Sudoeste 60 Sudoeste 0.8 -- -- 74
2021-02-21 05:00:00 6.8 23 Sudoeste 55 Sur 0 -- -- 59
2021-02-21 04:00:00 5.7 23 Sudoeste 48 Sur 0.4 -- -- 69
2021-02-21 03:00:00 5.3 18 Sudoeste 58 Sur 0.2 -- -- 73
2021-02-21 02:00:00 5.3 18 Sudoeste 46 Sudoeste 0.6 -- -- 77
2021-02-21 01:00:00 4.8 17 Sur 36 Sur 2.2 -- -- 86
2021-02-21 00:00:00 5.5 15 Sur 30 Sudoeste 1.4 -- -- 81
2021-02-20 23:00:00 5.6 12 Sudoeste 30 Sudoeste 1.8 -- -- 84
2021-02-20 22:00:00 5.7 18 Sudoeste 36 Sur 1.6 -- -- 86
2021-02-20 21:00:00 6 16 Sur 34 Sur 2 -- -- 86
2021-02-20 20:00:00 5.7 10 Sudoeste 20 Oeste 2.8 -- -- 85
2021-02-20 19:00:00 5.9 12 Oeste 25 Sudoeste 3.4 -- -- 85
2021-02-20 18:00:00 6.4 8 Sudoeste 48 Sur 3.2 -- -- 87
2021-02-20 17:00:00 7.5 20 Sur 49 Oeste 1.4 -- -- 78
2021-02-20 16:00:00 8 26 Sur 59 Sur 0.4 -- -- 76
2021-02-20 15:00:00 8.9 33 Sur 67 Sur 0 -- -- 69
2021-02-20 14:00:00 8.8 40 Sur 75 Sur 0 -- -- 67
2021-02-20 13:00:00 8.5 46 Sur 79 Sur 0.4 -- -- 69
2021-02-20 12:00:00 7.9 38 Sur 80 Sur 0.4 -- -- 72
2021-02-20 11:00:00 8.5 32 Sur 84 Sur 0 -- -- 69
2021-02-20 10:00:00 9 40 Sur 84 Sur 0 -- -- 64
2021-02-20 09:00:00 -- 37 Sur 72 Sur 0 -- -- --
2021-02-20 08:00:00 8.4 27 Sur 66 Sur 0 -- -- 63
2021-02-20 07:00:00 8.5 31 Sur 71 Sur 0 -- -- 65
2021-02-20 06:00:00 8.7 38 Sur 78 Sur 0 -- -- 64
2021-02-20 05:00:00 8.8 36 Sur 87 Sur 0 -- -- 62
2021-02-20 04:00:00 9.1 35 Sur 84 Sur 0 -- -- 59
2021-02-20 03:00:00 9.1 33 Sudoeste 86 Sur 0 -- -- 60
2021-02-20 02:00:00 9.1 44 Sur 79 Sur 0 -- -- 60
2021-02-20 01:00:00 9.1 37 Sur 79 Sur 0 -- -- 62
2021-02-20 00:00:00 9.1 34 Sur 68 Sur 0 -- -- 61
2021-02-19 23:00:00 9.2 27 Sudoeste 63 Oeste 0 -- -- 64
2021-02-19 22:00:00 8.9 30 Sur 71 Sur 0 -- -- 66
2021-02-19 21:00:00 8.8 35 Sur 76 Sur 0 -- -- 67
2021-02-19 20:00:00 9.1 30 Sur 62 Sur 0 -- -- 65
2021-02-19 19:00:00 8.9 30 Sur 66 Sur 0 -- -- 67
2021-02-19 18:00:00 9.1 26 Sur 59 Sur 0 -- -- 66
2021-02-19 17:00:00 9.2 27 Sur 62 Sur 0 -- -- 64
2021-02-19 16:00:00 8.8 26 Sur 57 Sur 0 -- -- 67
2021-02-19 15:00:00 7.9 22 Sur 56 Sur 0 -- -- 75
2021-02-19 14:00:00 9.2 21 Sur 61 Sur 0 -- -- 65
2021-02-19 13:00:00 9.2 24 Sudoeste 55 Sudoeste 0 -- -- 65
2021-02-19 12:00:00 9.7 30 Sur 62 Sudoeste 0 -- -- 61
2021-02-19 11:00:00 9.4 28 Sur 67 Sur 0 -- -- 63
2021-02-19 10:00:00 8 24 Sur 44 Sur 0 -- -- 68
2021-02-19 09:00:00 7.5 21 Sur 45 Sur 0 -- -- 69
2021-02-19 08:00:00 7.3 20 Sur 51 Sur 0 -- -- 68
2021-02-19 07:00:00 7.1 26 Sudoeste 47 Sur 0 -- -- 69
2021-02-19 06:00:00 6.6 17 Sur 39 Sur 0 -- -- 70
2021-02-19 05:00:00 6.4 16 Sur 41 Sur 0 -- -- 71
2021-02-19 04:00:00 6.7 23 Sur 50 Sur 0 -- -- 71
2021-02-19 03:00:00 5.7 12 Sur 33 Sur 0 -- -- 74
2021-02-19 02:00:00 5.8 17 Sur 36 Sur 0 -- -- 69
2021-02-19 01:00:00 5.5 17 Sur 35 Sur 0 -- -- 70
2021-02-19 00:00:00 5.7 14 Sur 33 Sur 0 -- -- 69
2021-02-18 23:00:00 5.5 6 Sudoeste 29 Sur 0 -- -- 73
2021-02-18 22:00:00 5.7 9 Sur 23 Sur 0 -- -- 73
2021-02-18 21:00:00 5.6 8 Sur 24 Oeste 0 -- -- 76
2021-02-18 20:00:00 5.4 8 Sudoeste 22 Sur 0.2 -- -- 78
2021-02-18 19:00:00 5.3 7 Sur 14 Sur 0 -- -- 82
2021-02-18 18:00:00 5.3 4 Oeste 27 Sudoeste 0.8 -- -- 79
2021-02-18 17:00:00 6.3 3 Norte 22 Norte 0 -- -- 75
2021-02-18 16:00:00 5.7 5 Sudeste 24 Oeste 0.6 -- -- 83
2021-02-18 15:00:00 6.2 10 Sudoeste 27 Sudoeste 0 -- -- 74
2021-02-18 14:00:00 5.5 5 Sudoeste 27 Sudeste 0.4 -- -- 82
2021-02-18 13:00:00 5.3 5 Sudeste 16 Sudeste 0 -- -- 84
2021-02-18 12:00:00 5.3 3 Sudeste 19 Nordeste 0.8 -- -- 86
2021-02-18 11:00:00 4.3 4 Este 23 Norte 0.8 -- -- 85
2021-02-18 10:00:00 4.6 5 Este -- -- 2.2 -- -- 85
2021-02-18 09:00:00 4.8 4 Nordeste 21 Sur 1.6 -- -- 87
2021-02-18 08:00:00 4.3 13 Sur 41 Oeste 3.8 -- -- 84
2021-02-18 07:00:00 6.5 12 Sur 52 Sudoeste 2.4 -- -- 84
2021-02-18 06:00:00 7.2 14 Sur 52 Oeste 0.8 -- -- 78
2021-02-18 05:00:00 7.3 20 Oeste 64 Sur 3.4 -- -- 78
2021-02-18 04:00:00 7.7 21 Sudoeste 76 Sur 4 -- -- 77
2021-02-18 03:00:00 8 21 Sur 69 Sur 1.4 -- -- 78
2021-02-18 02:00:00 6.7 12 Sur 40 Noroeste 3.4 -- -- 84
2021-02-18 01:00:00 8.1 13 Sur 45 Sudoeste 0.2 -- -- 76
2021-02-18 00:00:00 7.1 14 Sur 39 Sur 1.6 -- -- 83
2021-02-17 23:00:00 6.9 14 Sudoeste 48 Sudoeste 3.8 -- -- 80
2021-02-17 22:00:00 7.7 11 Sur 32 Sur 2.6 -- -- 84
2021-02-17 21:00:00 7.3 14 Sur 33 Sur 2.6 -- -- 84
2021-02-17 20:00:00 7.5 7 Sur 25 Sur 4.8 -- -- 86
2021-02-17 19:00:00 7.5 15 Sur 33 Sur 0.6 -- -- 83
2021-02-17 18:00:00 8.5 19 Sur 41 Sur 0 -- -- 74
2021-02-17 17:00:00 8.1 19 Sur 31 Sur 0 -- -- 81
2021-02-17 16:00:00 8.6 13 Sur 29 Sudoeste 0 -- -- 71
2021-02-17 15:00:00 10.3 16 Sudoeste 44 Sur 0 -- -- 55
2021-02-17 14:00:00 9.4 17 Sudoeste 50 Sur 0 -- -- 57
2021-02-17 13:00:00 9.7 16 Sudoeste 38 Sur 0 -- -- 52
2021-02-17 12:00:00 8.9 21 Sur 41 Sur 0 -- -- 61
2021-02-17 11:00:00 6.8 18 Sur 38 Sur 0 -- -- 72
2021-02-17 10:00:00 5.6 14 Sur 29 Sur 0 -- -- 73
2021-02-17 09:00:00 5 11 Sudoeste 32 Sur 0 -- -- 73
2021-02-17 08:00:00 4.5 12 Sudoeste 34 Sudeste 0 -- -- 74
2021-02-17 07:00:00 4.4 14 Sur 39 Sur 0 -- -- 75
2021-02-17 06:00:00 4.2 15 Sur 28 Sur 0 -- -- 76
2021-02-17 05:00:00 4 14 Sur 27 Sur 0 -- -- 76
2021-02-17 04:00:00 3.7 11 Sur 23 Sur 0 -- -- 74
2021-02-17 03:00:00 4.1 13 Sur 22 Sur 0 -- -- 73
2021-02-17 02:00:00 3.1 5 Sudoeste 13 Sur 0 -- -- 75
2021-02-17 01:00:00 4.2 8 Sur 22 Sudeste 0 -- -- 70
2021-02-17 00:00:00 4.6 10 Sur 19 Sur 0 -- -- 72
2021-02-16 23:00:00 5.1 11 Sudoeste 23 Sudoeste 0 -- -- 74
2021-02-16 22:00:00 5.3 6 Sudeste 23 Sur 0 -- -- 75
2021-02-16 21:00:00 5.6 7 Sudoeste 19 Sur 0 -- -- 76
2021-02-16 20:00:00 5.7 6 Sur 15 Sur 0 -- -- 74
2021-02-16 19:00:00 6.4 5 Sudoeste 18 Oeste 0 -- -- 65
2021-02-16 18:00:00 7.6 9 Oeste 22 Sudoeste 0 -- -- 56
2021-02-16 17:00:00 9.4 6 Sudoeste 26 Sudoeste 0 -- -- 54
2021-02-16 16:00:00 8.3 7 Oeste 32 Sudoeste 0 -- -- 63
2021-02-16 15:00:00 8.2 11 Oeste 36 Oeste 0 -- -- 68
2021-02-16 14:00:00 7.8 8 Nordeste 28 Nordeste 0.2 -- -- 81
2021-02-16 13:00:00 7 5 Sudeste 19 Sudoeste 1 -- -- 83
2021-02-16 12:00:00 6.6 5 Este 14 Nordeste 0.8 -- -- 86
2021-02-16 11:00:00 5.8 8 Nordeste 39 Norte 3.8 -- -- 84
2021-02-16 10:00:00 6.6 7 Sudoeste 39 Sur 1.8 -- -- 80
2021-02-16 09:00:00 8 13 Sur 44 Oeste 0.2 -- -- 67
2021-02-16 08:00:00 7.6 17 Sur 51 Sur 0 -- -- 60
2021-02-16 07:00:00 7.8 17 Sur 35 Sur 0 -- -- 62
2021-02-16 06:00:00 8.1 14 Sudoeste 45 Sudoeste 0 -- -- 61
2021-02-16 05:00:00 8.5 22 Sur 50 Sudeste 0 -- -- 61
2021-02-16 04:00:00 8.8 18 Sur 40 Sudeste 0 -- -- 60
2021-02-16 03:00:00 9 15 Sur 38 Sur 0 -- -- 59
2021-02-16 02:00:00 9.1 13 Sur 44 Sur 0 -- -- 55
2021-02-16 01:00:00 9.7 22 Sur 49 Sur 0 -- -- 51
2021-02-16 00:00:00 10.1 26 Sur 53 Sur 0 -- -- 48
2021-02-15 23:00:00 10.4 22 Sur 55 Sur 0 -- -- 45
2021-02-15 22:00:00 10.9 23 Sur 46 Sudeste 0 -- -- 43
2021-02-15 21:00:00 11.2 21 Sur 37 Sur 0 -- -- 42
2021-02-15 20:00:00 11.5 21 Sur 41 Sur 0 -- -- 44
2021-02-15 19:00:00 11.9 22 Sur 42 Sur 0 -- -- 44
2021-02-15 18:00:00 12.2 17 Sudoeste 45 Sur 0 -- -- 47
2021-02-15 17:00:00 13.6 21 Sur 45 Sur 0 -- -- 44
2021-02-15 16:00:00 13.5 23 Sur 49 Sur 0 -- -- 43
2021-02-15 15:00:00 12.9 26 Sur 57 Sudeste 0 -- -- 48
2021-02-15 14:00:00 11.8 35 Sur 59 Sur 0 -- -- 49
2021-02-15 13:00:00 12.3 23 Sur 57 Sur 0 -- -- 44
2021-02-15 12:00:00 10.9 30 Sur 56 Sur 0 -- -- 42
2021-02-15 11:00:00 9.7 22 Sur 47 Sur 0 -- -- 43
2021-02-15 10:00:00 8.5 22 Sur 46 Sur 0 -- -- 48
2021-02-15 09:00:00 8.4 21 Sur 48 Sur 0 -- -- 45
2021-02-15 08:00:00 8.3 18 Sudoeste 42 Sur 0 -- -- 43
2021-02-15 07:00:00 8.1 15 Sur 42 Sur 0 -- -- 47
2021-02-15 06:00:00 8.5 15 Sudoeste 42 Sur 0 -- -- 45
2021-02-15 05:00:00 8.9 22 Sur 38 Sur 0 -- -- 46
2021-02-15 04:00:00 9.4 23 Sur 40 Sur 0 -- -- 39
2021-02-15 03:00:00 9 16 Sudoeste 38 Sur 0 -- -- 45
2021-02-15 02:00:00 8.9 14 Sur 37 Sur 0 -- -- 50
2021-02-15 01:00:00 8.9 15 Sudoeste 40 Sur 0 -- -- 57
2021-02-15 00:00:00 8.9 17 Sur 48 Sur 0 -- -- 61
2021-02-14 23:00:00 9 18 Sur 43 Sur 0 -- -- 62
2021-02-14 22:00:00 9 18 Sur 44 Sur 0 -- -- 62
2021-02-14 21:00:00 8.7 15 Sur 33 Sur 0 -- -- 64
2021-02-14 20:00:00 9.2 17 Sur 32 Sudeste 0 -- -- 61
2021-02-14 19:00:00 9.7 16 Sur 32 Sur 0 -- -- 60
2021-02-14 18:00:00 10.7 14 Sur 42 Sudeste 0 -- -- 62
2021-02-14 17:00:00 11.6 24 Sur 46 Sur 0 -- -- 57
2021-02-14 16:00:00 11.2 20 Sur 38 Sudeste 0 -- -- 60
2021-02-14 15:00:00 11 22 Sur 47 Sur 0 -- -- 62
2021-02-14 14:00:00 10.9 18 Sur 46 Sur 0 -- -- 64
2021-02-14 13:00:00 10.4 26 Sur 42 Sur 0 -- -- 65
2021-02-14 12:00:00 10.3 20 Sur 48 Sur 0 -- -- 66
2021-02-14 11:00:00 10.2 22 Sur 40 Sudoeste 0 -- -- 64
2021-02-14 10:00:00 10 19 Sur 55 Sur 0 -- -- 64
2021-02-14 09:00:00 8.4 25 Sur 51 Sur 0 -- -- 69
2021-02-14 08:00:00 7.8 22 Sur 50 Sur 0 -- -- 72
2021-02-14 07:00:00 7.3 12 Sur 36 Sur 0 -- -- 76
2021-02-14 06:00:00 7.7 23 Sur 39 Sur 0 -- -- 76
2021-02-14 05:00:00 7.5 12 Sur 28 Sudeste 0 -- -- 78
2021-02-14 04:00:00 7.1 14 Sur 26 Sur 0 -- -- 80
2021-02-14 03:00:00 7 15 Sur 33 Sur 0 -- -- 82
2021-02-14 02:00:00 7.4 11 Sur 33 Sur 0 -- -- 80
2021-02-14 01:00:00 7.7 14 Sudoeste 25 Oeste 0 -- -- 77
2021-02-14 00:00:00 8.1 11 Sudoeste 29 Sudoeste 0 -- -- 76
2021-02-13 23:00:00 7.7 9 Sur 27 Oeste 0 -- -- 81
2021-02-13 22:00:00 8.4 10 Sudoeste 21 Sur 0 -- -- 76
2021-02-13 21:00:00 8.2 7 Sur 17 Sudeste 0 -- -- 77
2021-02-13 20:00:00 7.6 4 Sudoeste 15 Sur 0 -- -- 83
2021-02-13 19:00:00 9 3 Sur 15 Sudoeste 0 -- -- 77
2021-02-13 18:00:00 9.9 5 Sur 14 Sudoeste 0 -- -- 75
2021-02-13 17:00:00 9.9 6 Noroeste 21 Noroeste 0 -- -- 74
2021-02-13 16:00:00 9.8 4 Sur 15 Sur 0 -- -- 79
2021-02-13 15:00:00 9.8 6 Sudeste 21 Noroeste 0 -- -- 74
2021-02-13 14:00:00 10.3 10 Sur 21 Sur 0 -- -- 74
2021-02-13 13:00:00 8.2 5 Sur 17 Sur 0 -- -- 82
2021-02-13 08:00:00 -- -- -- -- -- -- -- -- --
2021-02-13 07:00:00 -- -- -- -- -- -- -- -- --
2021-02-13 06:00:00 -- -- -- -- -- -- -- -- --
2021-02-13 05:00:00 5.7 10 Sur 21 Sur 0 -- -- 56
2021-02-13 04:00:00 4.9 5 Sudoeste 13 Oeste 0 -- -- 67
2021-02-13 03:00:00 5.2 9 Oeste 21 Sudoeste 0 -- -- 68
2021-02-13 02:00:00 5.4 9 Sudoeste 24 Sur 0 -- -- 70
2021-02-13 01:00:00 4.7 6 Sur 22 Sur 0 -- -- 78
2021-02-13 00:00:00 4.8 5 Sudoeste 16 Sudoeste 0 -- -- 79
2021-02-12 23:00:00 5.1 7 Sudoeste 14 Oeste 0 -- -- 81
2021-02-12 22:00:00 4.8 5 Oeste 10 Sudoeste 0 -- -- 80
2021-02-12 21:00:00 5.1 2 Oeste 8 Sudeste 0 -- -- 81
2021-02-12 20:00:00 5.3 4 Oeste 12 Oeste 0 -- -- 80
2021-02-12 19:00:00 6.3 7 Oeste 10 Sudoeste 0 -- -- 78
2021-02-12 18:00:00 7.9 6 Sur 15 Sur 0.2 -- -- 69
2021-02-12 17:00:00 10.5 4 Sudoeste 11 Sudoeste 0 -- -- 62
2021-02-12 16:00:00 8.3 4 Sur 9 Sudeste 0 -- -- 79
2021-02-12 15:00:00 7.4 2 Sudeste 9 Sur 0 -- -- 82
2021-02-12 14:00:00 6.4 4 Este 12 Norte 0 -- -- 86
2021-02-12 13:00:00 6 5 Este 27 Norte 0 -- -- 86
2021-02-12 12:00:00 5.6 10 Norte 30 Norte 0 -- -- 88
2021-02-12 11:00:00 5.3 8 Norte 24 Norte 0 -- -- 90
2021-02-12 10:00:00 5.1 4 Nordeste 16 Este 1.6 -- -- 91
2021-02-12 09:00:00 5 6 Nordeste 29 Norte 2.4 -- -- 90
2021-02-12 08:00:00 5.1 8 Norte 32 Norte 2.2 -- -- 89
2021-02-12 07:00:00 5.1 12 Norte 41 Norte 1.2 -- -- 88
2021-02-12 06:00:00 5.4 14 Norte 37 Norte 0.2 -- -- 88
2021-02-12 05:00:00 6.1 8 Nordeste 36 Norte 0.4 -- -- 86
2021-02-12 04:00:00 6.7 16 Norte 39 Nordeste 0.2 -- -- 87
2021-02-12 03:00:00 6.7 4 Este 14 Sudeste 2.2 -- -- 90
2021-02-12 02:00:00 6.9 4 Nordeste 14 Oeste 0.2 -- -- 87
2021-02-12 01:00:00 7 4 Sudeste 17 Sudeste 1 -- -- 82
2021-02-12 00:00:00 7.3 5 Oeste 18 Nordeste 3 -- -- 84
2021-02-11 23:00:00 7.9 7 Sudoeste 19 Sur 3 -- -- 85
2021-02-11 22:00:00 7.9 0 Calma 24 Sudoeste 2 -- -- 87
2021-02-11 21:00:00 8.5 7 Sur 16 Sur 0 -- -- 89
2021-02-11 20:00:00 8.6 6 Sur 23 Sur 0.4 -- -- 88
2021-02-11 19:00:00 9.2 8 Sur 20 Sur 1.8 -- -- 88
2021-02-11 18:00:00 8.9 10 Sur 23 Sur 0.4 -- -- 88
2021-02-11 17:00:00 9.9 8 Sur 39 Sur 0 -- -- 81
2021-02-11 16:00:00 10.2 13 Sur 24 Sur 0 -- -- 77
2021-02-11 15:00:00 10.1 11 Sur 31 Sur 0 -- -- 79
2021-02-11 14:00:00 9.3 12 Sur 33 Sur 0 -- -- 85
2021-02-11 13:00:00 9 20 Sur 30 Sur 0 -- -- 85
2021-02-11 12:00:00 7 15 Sur 28 Sudeste 0 -- -- 88
2021-02-11 11:00:00 7.4 13 Sur 22 Sudeste 0 -- -- 86
2021-02-11 10:00:00 6.2 9 Sur 21 Sur 0 -- -- 90
2021-02-11 09:00:00 6.1 9 Sur 31 Sur 0 -- -- 87
2021-02-11 08:00:00 6 8 Sudeste 25 Sur 0 -- -- 91
2021-02-11 07:00:00 5.4 12 Sur 21 Sur 0 -- -- 90
2021-02-11 06:00:00 6.1 7 Sur 15 Sudeste 0 -- -- 91
2021-02-11 05:00:00 4.7 5 Sur 17 Sudeste 0.2 -- -- 92
2021-02-11 04:00:00 4.2 5 Sur 13 Sudeste 0.4 -- -- 91
2021-02-11 03:00:00 4.2 4 Sudoeste 9 Sudoeste 0.2 -- -- 91
2021-02-11 02:00:00 4.5 4 Sudeste 14 Sur 0.2 -- -- 91
2021-02-11 01:00:00 4.8 6 Sudeste 21 Nordeste 0.2 -- -- 89
2021-02-11 00:00:00 4.4 9 Sudeste 21 Sur 0.4 -- -- 87
2021-02-10 23:00:00 3.9 10 Sudoeste 24 Sudoeste 0.8 -- -- 83
2021-02-10 22:00:00 5.1 5 Sur 23 Oeste 0.2 -- -- 65
2021-02-10 21:00:00 6 14 Sudoeste 26 Sur 0 -- -- 58
2021-02-10 20:00:00 5.5 8 Sudoeste 14 Sur 0 -- -- 59
2021-02-10 19:00:00 5.9 6 Sur 16 Sur 0 -- -- 51
2021-02-10 18:00:00 6.3 3 Sudoeste 16 Sur 0 -- -- 59
2021-02-10 17:00:00 7.2 8 Sur 22 Noroeste 0 -- -- 55
2021-02-10 16:00:00 7.7 11 Sudoeste 20 Sudoeste 0 -- -- 59
2021-02-10 15:00:00 7.1 8 Sur 15 Sudoeste 0 -- -- 68
2021-02-10 14:00:00 6.1 3 Sudeste 19 Norte 0 -- -- 71
2021-02-10 13:00:00 3.8 10 Norte 23 Norte 0 -- -- 77
2021-02-10 12:00:00 3.2 8 Norte 25 Norte 0 -- -- 79
2021-02-10 11:00:00 2.7 9 Norte 21 Norte 0 -- -- 80
2021-02-10 10:00:00 2.3 11 Nordeste 31 Norte 0 -- -- 79
2021-02-10 09:00:00 1.4 6 Nordeste 16 Norte 0 -- -- 84
2021-02-10 08:00:00 1.3 8 Nordeste 27 Norte 0 -- -- 85
2021-02-10 07:00:00 1 10 Norte 27 Noroeste 0 -- -- 87
2021-02-10 06:00:00 1.1 12 Norte 28 Norte 0.4 -- -- 89
2021-02-10 05:00:00 1.3 12 Norte 28 Norte 1 -- -- 90
2021-02-10 04:00:00 1.2 9 Norte 28 Norte 0 -- -- 91
2021-02-10 03:00:00 1 8 Nordeste 21 Noroeste 3 -- -- 89
2021-02-10 02:00:00 1.8 6 Nordeste 24 Nordeste 0.2 -- -- 86
2021-02-10 01:00:00 0.8 9 Sur 22 Sudoeste 2.2 -- -- 90
2021-02-10 00:00:00 0.6 6 Sur 26 Sudeste 2.4 -- -- 89
2021-02-09 23:00:00 1.5 9 Sur 28 Noroeste 1.4 -- -- 86
2021-02-09 22:00:00 2.4 10 Sur 35 Sudoeste 0 -- -- 83
2021-02-09 21:00:00 2.3 12 Sudoeste 45 Sudoeste 0.2 -- -- 80
2021-02-09 20:00:00 1.7 13 Sudoeste 31 Oeste 0.6 -- -- 86
2021-02-09 19:00:00 -0.1 2 Oeste 4 Sur 1.4 -- -- 90
2021-02-09 18:00:00 0.2 0 Calma 22 Norte 5.4 -- -- 87
2021-02-09 17:00:00 3 8 Sudoeste 28 Oeste 0.4 -- -- 77
2021-02-09 16:00:00 4.1 11 Sur 40 Sudoeste 0.2 -- -- 65
2021-02-09 15:00:00 3.3 12 Sudoeste 28 Sur 0.2 -- -- 80
2021-02-09 14:00:00 4.2 10 Sudeste 50 Sur 0 -- -- 73
2021-02-09 13:00:00 3.4 15 Sudoeste 39 Oeste 0 -- -- 76
2021-02-09 12:00:00 2.4 15 Sudoeste 36 Oeste 0.4 -- -- 82
2021-02-09 11:00:00 1.9 13 Sudoeste 40 Oeste 0.2 -- -- 83
2021-02-09 10:00:00 1.6 16 Noroeste 48 Nordeste 2.6 -- -- 84
2021-02-09 09:00:00 3.8 12 Sudeste 32 Oeste 3.6 -- -- 84
2021-02-09 08:00:00 3.4 10 Sur 37 Sudoeste 5 -- -- 86
2021-02-09 07:00:00 4 12 Sur 35 Sur 2.2 -- -- 86
2021-02-09 06:00:00 3.9 18 Sur 39 Sur 1.4 -- -- 87
2021-02-09 05:00:00 3.7 18 Sur 40 Sur 0.6 -- -- 88
2021-02-09 04:00:00 3.1 21 Sur 40 Sur 0.6 -- -- 90
2021-02-09 03:00:00 2.9 19 Sur 37 Sur 0.4 -- -- 89
2021-02-09 02:00:00 3.5 14 Sur 49 Sudoeste 0.4 -- -- 84
2021-02-09 01:00:00 3.2 16 Sur 41 Sur 0.8 -- -- 85
2021-02-09 00:00:00 3.4 13 Sur 31 Sudoeste 0 -- -- 83
2021-02-08 23:00:00 3.5 10 Sudoeste 38 Sudoeste 0.4 -- -- 83
2021-02-08 22:00:00 4 12 Oeste 39 Noroeste 0.2 -- -- 80
2021-02-08 21:00:00 4.4 8 Este 27 Nordeste 0 -- -- 84
2021-02-08 20:00:00 4.2 5 Sudeste 23 Norte 0.2 -- -- 86
2021-02-08 19:00:00 4 6 Nordeste 31 Norte 1.6 -- -- 89
2021-02-08 18:00:00 3.9 13 Norte 32 Norte 1.4 -- -- 86
2021-02-08 17:00:00 4.5 12 Norte 33 Norte 0.4 -- -- 84
2021-02-08 16:00:00 4.2 14 Norte 44 Norte 0.6 -- -- 86
2021-02-08 15:00:00 4.1 8 Norte 35 Norte 0.4 -- -- 85
2021-02-08 14:00:00 3.3 6 Este 25 Sudoeste 0.6 -- -- 87
2021-02-08 13:00:00 2.3 7 Sur 17 Sur 2 -- -- 86
2021-02-08 12:00:00 2.7 8 Norte 31 Sudoeste 2.2 -- -- 84
2021-02-08 11:00:00 3.7 10 Oeste 40 Sudoeste 0 -- -- 82
2021-02-08 10:00:00 3.1 9 Sudoeste 26 Oeste 0.2 -- -- 87
2021-02-08 09:00:00 2 3 Sur 16 Oeste 0.6 -- -- 89
2021-02-08 08:00:00 2.1 6 Sudoeste 16 Sur 1.6 -- -- 87
2021-02-08 07:00:00 2.8 3 Nordeste 21 Oeste 0 -- -- 85
2021-02-08 06:00:00 3 6 Este 31 Nordeste 0.2 -- -- 87
2021-02-08 05:00:00 3.3 6 Este 21 Nordeste 0.2 -- -- 86
2021-02-08 04:00:00 3.2 6 Nordeste 20 Sur 0.2 -- -- 86
2021-02-08 03:00:00 3.1 9 Nordeste 19 Nordeste 1.2 -- -- 91
2021-02-08 02:00:00 2.8 5 Sudeste 18 Oeste 3.2 -- -- 88
2021-02-08 01:00:00 2.9 10 Sur 28 Sur 1.2 -- -- 91
2021-02-08 00:00:00 2.9 20 Sur 32 Sur 0.8 -- -- 90
2021-02-07 23:00:00 3.3 15 Sur 31 Sur 2.8 -- -- 89
2021-02-07 22:00:00 3.1 14 Sur 30 Sudeste 0.2 -- -- 90
2021-02-07 21:00:00 3 13 Sur 26 Sur 0.6 -- -- 91
2021-02-07 20:00:00 2.3 17 Sur 32 Sur 0 -- -- 91
2021-02-07 19:00:00 2.9 8 Sur 23 Noroeste 0.2 -- -- 91
2021-02-07 18:00:00 3.5 14 Sudoeste 33 Sudoeste 0 -- -- 88
2021-02-07 17:00:00 3 11 Oeste 26 Sudoeste 0.2 -- -- 87
2021-02-07 16:00:00 2.3 11 Sudoeste 27 Sur 0.8 -- -- 88
2021-02-07 15:00:00 1.9 10 Sur 24 Sur 0.8 -- -- 87
2021-02-07 14:00:00 1.4 8 Sur 21 Sur 1 -- -- 88
2021-02-07 13:00:00 1 9 Sur 20 Sudeste 0.8 -- -- 86
2021-02-07 12:00:00 0.7 5 Sur 12 Sur 0.2 -- -- 85
2021-02-07 11:00:00 0.1 4 Sur 10 Sur 0 -- -- 85
2021-02-07 10:00:00 -0.2 3 Sudoeste 8 Norte 0 -- -- 84
2021-02-07 09:00:00 -0.9 0 Calma 6 Noroeste 0 -- -- 87
2021-02-07 08:00:00 -1.2 4 Norte 8 Noroeste 0 -- -- 87
2021-02-07 07:00:00 -1.6 2 Norte 9 Norte 0 -- -- 89
2021-02-07 06:00:00 -1.7 4 Norte 13 Noroeste 0 -- -- 88
2021-02-07 05:00:00 -1.8 4 Norte 10 Norte 0 -- -- 92
2021-02-07 04:00:00 -2.3 0 Calma 8 Norte 0 -- -- 89
2021-02-07 03:00:00 -1 6 Norte 10 Norte 0.2 -- -- 86
2021-02-07 02:00:00 -1.2 6 Norte 9 Norte 0 -- -- 90
2021-02-07 01:00:00 -1.3 0 Calma 8 Norte 0 -- -- 90
2021-02-07 00:00:00 -1.1 6 Norte 15 Norte 0 -- -- 89
2021-02-06 23:00:00 -0.8 8 Norte 18 Norte 0 -- -- 90
2021-02-06 22:00:00 -0.5 8 Norte 16 Norte 0 -- -- 87
2021-02-06 21:00:00 -0.2 6 Norte 24 Nordeste 0 -- -- 89
2021-02-06 20:00:00 0.2 10 Norte 26 Nordeste 0 -- -- 91
2021-02-06 19:00:00 0.8 8 Norte 22 Norte 0.2 -- -- 91
2021-02-06 18:00:00 1.2 10 Norte 26 Nordeste 0 -- -- 92
2021-02-06 17:00:00 1.7 11 Norte 25 Nordeste 0.2 -- -- 92
2021-02-06 16:00:00 2.2 13 Norte 29 Nordeste 0.4 -- -- 93
2021-02-06 15:00:00 2.5 12 Norte 27 Nordeste 0 -- -- 93
2021-02-06 14:00:00 2.2 10 Norte 30 Nordeste 0.2 -- -- 93
2021-02-06 13:00:00 2.2 12 Norte 27 Norte 0.2 -- -- 93
2021-02-06 12:00:00 2.2 12 Norte 29 Norte 0 -- -- 93
2021-02-06 11:00:00 1.9 10 Norte 26 Nordeste 0 -- -- 93
2021-02-06 10:00:00 1.4 9 Norte 19 Norte 0.6 -- -- 93
2021-02-06 09:00:00 1.1 10 Norte 18 Noroeste 0 -- -- 92
2021-02-06 08:00:00 1.1 9 Norte 17 Noroeste 0.4 -- -- 92
2021-02-06 07:00:00 0.8 9 Norte 18 Norte 1.4 -- -- 92
2021-02-06 06:00:00 1.5 9 Norte 19 Nordeste 0.2 -- -- 92
2021-02-06 05:00:00 2 10 Norte 24 Nordeste 0.6 -- -- 92
2021-02-06 04:00:00 1.7 8 Norte 20 Nordeste 3.6 -- -- 93
2021-02-06 03:00:00 2.5 8 Norte 21 Norte 0.4 -- -- 93
2021-02-06 02:00:00 2.6 8 Norte 23 Nordeste 0 -- -- 93
2021-02-06 01:00:00 2.7 10 Norte 22 Norte 0 -- -- 92
2021-02-06 00:00:00 2.8 8 Norte 20 Norte 1.2 -- -- 92
2021-02-05 23:00:00 3 8 Norte 16 Norte 1.8 -- -- 92
2021-02-05 22:00:00 3.1 8 Norte 18 Norte 1.2 -- -- 91
2021-02-05 21:00:00 3.3 6 Norte 20 Norte 1 -- -- 91
2021-02-05 20:00:00 3.6 6 Norte 13 Norte 1.2 -- -- 90
2021-02-05 19:00:00 3.8 7 Norte 14 Nordeste 1.4 -- -- 90
2021-02-05 18:00:00 4.3 4 Norte 17 Norte 0.4 -- -- 90
2021-02-05 17:00:00 4.4 6 Norte 15 Nordeste 0 -- -- 90
2021-02-05 16:00:00 4.6 6 Norte 14 Norte 0 -- -- 89
2021-02-05 15:00:00 4.6 6 Norte 12 Norte 0.4 -- -- 90
2021-02-05 14:00:00 4.6 2 Sur 6 Nordeste 0.2 -- -- 90
2021-02-05 13:00:00 4.5 3 Sur 6 Sur 0 -- -- 90
2021-02-05 12:00:00 3.2 3 Sur 6 Sur 0 -- -- 90
2021-02-05 11:00:00 2.5 0 Calma 7 Sur 0 -- -- 90
2021-02-05 10:00:00 1.7 0 Calma 5 Sudoeste 0 -- -- 90
2021-02-05 09:00:00 2 2 Norte 6 Norte 0 -- -- 88
2021-02-05 08:00:00 2.4 0 Calma 4 Norte 0 -- -- 88
2021-02-05 07:00:00 2.3 0 Calma 7 Sudeste 0 -- -- 88
2021-02-05 06:00:00 2.9 2 Este 9 Noroeste 0 -- -- 85
2021-02-05 05:00:00 2.8 3 Sur 8 Sur 0 -- -- 87
2021-02-05 04:00:00 2.8 4 Norte 8 Norte 0 -- -- 87
2021-02-05 03:00:00 2.6 0 Calma 4 Norte 0 -- -- 87
2021-02-05 02:00:00 3 0 Calma 8 Norte 0 -- -- 86
2021-02-05 01:00:00 3.9 3 Sudoeste 14 Oeste 0 -- -- 83
2021-02-05 00:00:00 4.1 0 Calma 6 Norte 0 -- -- 80
2021-02-04 23:00:00 4.3 3 Sudeste 15 Oeste 0 -- -- 78
2021-02-04 22:00:00 4.4 8 Sudoeste 18 Oeste 0 -- -- 78
2021-02-04 21:00:00 4.5 4 Noroeste 11 Sudeste 0 -- -- 76
2021-02-04 20:00:00 4.3 2 Este 17 Sudeste 0 -- -- 80
2021-02-04 19:00:00 5 10 Sur 21 Sur 0 -- -- 75
2021-02-04 18:00:00 5.6 7 Sur 23 Sur 0 -- -- 74
2021-02-04 17:00:00 6.3 9 Sur 19 Sur 0 -- -- 68
2021-02-04 16:00:00 5.8 11 Sur 23 Sur 0 -- -- 73
2021-02-04 15:00:00 5.8 11 Sur 20 Sur 0 -- -- 74
2021-02-04 14:00:00 5.7 13 Sur 20 Sur 0 -- -- 76
2021-02-04 13:00:00 6.1 13 Sur 26 Sur 0 -- -- 72
2021-02-04 12:00:00 6 9 Sur 26 Sudeste 0 -- -- 72
2021-02-04 11:00:00 5.1 10 Sur 30 Sur 0 -- -- 75
2021-02-04 10:00:00 4.4 14 Sur 31 Sur 0 -- -- 81
2021-02-04 09:00:00 4.1 15 Sur 27 Sur 0 -- -- 82
2021-02-04 08:00:00 4.1 10 Sur 22 Sur 0 -- -- 81
2021-02-04 07:00:00 4.1 9 Sur 18 Sur 0 -- -- 81
2021-02-04 06:00:00 4 4 Sur 8 Sur 0 -- -- 82
2021-02-04 05:00:00 4.1 4 Sur 14 Sur 0 -- -- 81
2021-02-04 04:00:00 4.2 7 Sur 18 Sudeste 0 -- -- 79
2021-02-04 03:00:00 4.2 8 Sur 28 Sudeste 0 -- -- 81
2021-02-04 02:00:00 4.7 8 Sur 28 Sur 0 -- -- 77
2021-02-04 01:00:00 4.9 8 Sur 24 Sudoeste 0 -- -- 76
2021-02-04 00:00:00 4.8 8 Sur 28 Sur 0 -- -- 73
2021-02-03 23:00:00 5 10 Sudoeste 31 Sudoeste 0 -- -- 73
2021-02-03 22:00:00 5 12 Sudoeste 29 Noroeste 0.2 -- -- 77
2021-02-03 21:00:00 4.2 8 Sur 26 Sur 1 -- -- 84
2021-02-03 20:00:00 4.5 6 Sudoeste 22 Sudoeste 2.2 -- -- 84
2021-02-03 19:00:00 4.7 8 Sur 26 Sur 0.6 -- -- 84
2021-02-03 18:00:00 5.9 9 Sur 30 Sur 0 -- -- 77
2021-02-03 17:00:00 6.8 3 Sur 21 Sur 0.4 -- -- 77
2021-02-03 16:00:00 6.5 8 Sur 25 Noroeste 0.2 -- -- 73
2021-02-03 15:00:00 6.7 12 Sur 34 Sur 0 -- -- 69
2021-02-03 14:00:00 7.1 13 Sudoeste 39 Oeste 0 -- -- 66
2021-02-03 13:00:00 7.4 14 Sudoeste 43 Sudoeste 0 -- -- 68
2021-02-03 12:00:00 6.4 13 Sudoeste 32 Sudoeste 0.4 -- -- 78
2021-02-03 11:00:00 5.2 13 Sudoeste 43 Sur 0.4 -- -- 80
2021-02-03 10:00:00 5.4 12 Sudoeste 33 Sudoeste 0 -- -- 76
2021-02-03 09:00:00 4.2 11 Sudoeste 30 Sur 2.2 -- -- 80
2021-02-03 08:00:00 4.9 12 Sudoeste 42 Oeste 0.6 -- -- 79
2021-02-03 07:00:00 5.7 14 Sudoeste 49 Noroeste 0 -- -- 70
2021-02-03 06:00:00 5.7 15 Sudoeste 46 Sudoeste 0 -- -- 67
2021-02-03 05:00:00 5.9 17 Oeste 60 Oeste 0.2 -- -- 70
2021-02-03 04:00:00 6.4 17 Sudoeste 64 Sur 1.2 -- -- 79
2021-02-03 03:00:00 7 20 Oeste 51 Norte 3 -- -- 77
2021-02-03 02:00:00 8 11 Oeste 43 Noroeste 1.2 -- -- 82
2021-02-03 01:00:00 8.2 15 Oeste 57 Oeste 4.2 -- -- 81
2021-02-03 00:00:00 8.8 17 Sudoeste 40 Sudoeste 3 -- -- 85
2021-02-02 23:00:00 8.8 17 Sur 51 Sur 3 -- -- 86
2021-02-02 22:00:00 7.8 17 Sur 39 Sur 2.2 -- -- 89
2021-02-02 21:00:00 7.4 18 Sur 36 Sur 2.4 -- -- 90
2021-02-02 20:00:00 6.9 19 Sur 34 Sudeste 1.6 -- -- 89
2021-02-02 19:00:00 6.9 14 Sur 35 Sudoeste 0.4 -- -- 85
2021-02-02 18:00:00 7.4 15 Sur 47 Oeste 2.6 -- -- 82
2021-02-02 17:00:00 8.6 10 Sur 43 Sur 0.6 -- -- 82
2021-02-02 16:00:00 9.6 23 Sur 43 Sur 0.2 -- -- 81
2021-02-02 15:00:00 9.1 20 Sur 37 Sur 0 -- -- 87
2021-02-02 14:00:00 9.2 24 Sur 45 Sur 0 -- -- 82
2021-02-02 13:00:00 8.2 21 Sur 47 Sur 1.6 -- -- 86
2021-02-02 12:00:00 7.8 16 Sur 34 Sur 1 -- -- 89
2021-02-02 11:00:00 7.3 19 Sur 39 Sur 0 -- -- 89
2021-02-02 10:00:00 7.1 22 Sur 35 Sur 0.6 -- -- 89
2021-02-02 09:00:00 7.3 18 Sur 38 Sur 0.2 -- -- 86
2021-02-02 08:00:00 7.9 12 Sur 51 Sur 0 -- -- 81
2021-02-02 07:00:00 8 21 Sur 50 Sur 0 -- -- 79
2021-02-02 06:00:00 7.3 13 Sudoeste 35 Sudoeste 0.2 -- -- 87
2021-02-02 05:00:00 7.4 10 Sudoeste 27 Sudoeste 0 -- -- 86
2021-02-02 04:00:00 7.4 12 Sur 27 Sur 0.2 -- -- 85
2021-02-02 03:00:00 7.5 6 Sudeste 19 Sur 0.4 -- -- 86
2021-02-02 02:00:00 7.9 9 Oeste 29 Noroeste 0.4 -- -- 83
2021-02-02 01:00:00 8.5 12 Oeste 35 Noroeste 0 -- -- 81
2021-02-02 00:00:00 9 10 Sudoeste 26 Sudoeste 0.2 -- -- 80
2021-02-01 23:00:00 8.9 6 Oeste 19 Sudoeste 0 -- -- 84
2021-02-01 22:00:00 8.9 6 Sudeste 27 Noroeste 0 -- -- 85
2021-02-01 21:00:00 8.6 9 Sur 23 Sur 0.2 -- -- 88
2021-02-01 20:00:00 8.2 6 Sudeste 20 Noroeste 0 -- -- 88
2021-02-01 19:00:00 8.3 7 Sur 18 Sur 0 -- -- 87
2021-02-01 18:00:00 8.5 8 Sudoeste 23 Sur 0 -- -- 82
2021-02-01 17:00:00 8.7 6 Sur 24 Sudoeste 0 -- -- 78
2021-02-01 16:00:00 8.8 10 Sudoeste 26 Noroeste 0 -- -- 75
2021-02-01 15:00:00 8.2 10 Oeste 23 Noroeste 0 -- -- 79
2021-02-01 14:00:00 8.6 5 Este 33 Norte 0 -- -- 77
2021-02-01 13:00:00 9.8 8 Sudeste 26 Oeste 0 -- -- 70
2021-02-01 12:00:00 8.6 9 Este 23 Sudoeste 0.2 -- -- 76
2021-02-01 11:00:00 9.5 6 Este 18 Sudeste 0 -- -- 77
2021-02-01 10:00:00 7.5 6 Este 23 Noroeste 0 -- -- 86
2021-02-01 09:00:00 6.6 4 Nordeste 13 Este 0 -- -- 88
2021-02-01 08:00:00 6.4 4 Sudeste 22 Nordeste 0 -- -- 86
2021-02-01 07:00:00 6.8 8 Sur 22 Norte 0 -- -- 83
2021-02-01 06:00:00 7.3 9 Sur 26 Nordeste 0 -- -- 77
2021-02-01 05:00:00 7.2 11 Nordeste 28 Nordeste 0 -- -- 76
2021-02-01 04:00:00 7.1 11 Nordeste 39 Nordeste 0 -- -- 77
2021-02-01 03:00:00 7.1 12 Nordeste 31 Norte 0 -- -- 78
2021-02-01 02:00:00 6.9 14 Nordeste 35 Nordeste 0 -- -- 79
2021-02-01 01:00:00 7 15 Nordeste 49 Norte 0 -- -- 79
2021-02-01 00:00:00 7 18 Norte 49 Norte 0 -- -- 78
2021-01-31 23:00:00 6.9 20 Norte 52 Norte 0 -- -- 81
2021-01-31 22:00:00 6.9 18 Norte 57 Norte 0 -- -- 80
2021-01-31 21:00:00 7.6 21 Norte 61 Norte 0.2 -- -- 82
2021-01-31 20:00:00 7.8 18 Nordeste 57 Norte 0.8 -- -- 84
2021-01-31 19:00:00 8.8 22 Nordeste 49 Norte 0 -- -- 77
2021-01-31 18:00:00 8.8 15 Nordeste 49 Norte 0.2 -- -- 79
2021-01-31 17:00:00 10.2 13 Nordeste 42 Sudeste 0 -- -- 69
2021-01-31 16:00:00 11 11 Este 33 Nordeste 0 -- -- 67
2021-01-31 15:00:00 11.5 8 Sur 35 Norte 0 -- -- 66
2021-01-31 14:00:00 10.9 7 Sur 23 Norte 0 -- -- 71
2021-01-31 13:00:00 10.1 6 Oeste 26 Sur 0 -- -- 75
2021-01-31 12:00:00 9.2 5 Sur 15 Sudeste 0.2 -- -- 93
2021-01-31 11:00:00 7.4 4 Este 17 Sudeste 0.8 -- -- 92
2021-01-31 10:00:00 6.5 4 Este 16 Sudeste 1 -- -- 92
2021-01-31 09:00:00 6.2 5 Nordeste 17 Este 2.2 -- -- 91
2021-01-31 08:00:00 5.6 5 Sudeste 17 Sur 1.8 -- -- 90
2021-01-31 07:00:00 5.4 10 Sur 22 Sudoeste 1.6 -- -- 90
2021-01-31 06:00:00 4.7 4 Sudeste 14 Este 1 -- -- 90
2021-01-31 05:00:00 4.4 5 Este 18 Sur 1 -- -- 90
2021-01-31 04:00:00 4 5 Nordeste 27 Nordeste 0.4 -- -- 89
2021-01-31 03:00:00 3.7 10 Nordeste 34 Norte 0 -- -- 86
2021-01-31 02:00:00 3.7 13 Nordeste 37 Norte 0 -- -- 87
2021-01-31 01:00:00 3.7 14 Norte 37 Noroeste 0.2 -- -- 87
2021-01-31 00:00:00 3.4 11 Nordeste 49 Norte 0.2 -- -- 86
2021-01-30 23:00:00 3.4 14 Norte 40 Norte 0.8 -- -- 88
2021-01-30 22:00:00 3.2 12 Norte 44 Norte 1.2 -- -- 88
2021-01-30 21:00:00 2.9 15 Norte 31 Norte 1.8 -- -- 87
2021-01-30 20:00:00 3.1 14 Norte 32 Norte 1 -- -- 87
2021-01-30 19:00:00 2.4 11 Nordeste 36 Norte 2.6 -- -- 87
2021-01-30 18:00:00 3.3 17 Norte 55 Norte 1.2 -- -- 84
2021-01-30 17:00:00 3.6 13 Nordeste 58 Norte 0.4 -- -- 82
2021-01-30 16:00:00 3.4 14 Norte 44 Norte 2 -- -- 85
2021-01-30 15:00:00 3.1 8 Nordeste 47 Norte 0.8 -- -- 84
2021-01-30 14:00:00 3.9 22 Norte 55 Norte 0.6 -- -- 84
2021-01-30 13:00:00 3.2 17 Norte 46 Norte 0.6 -- -- 84
2021-01-30 12:00:00 2.8 23 Norte 56 Norte 0.8 -- -- 84
2021-01-30 11:00:00 1.4 13 Norte 43 Norte 2.8 -- -- 87
2021-01-30 10:00:00 3.2 22 Norte 49 Norte 0.4 -- -- 82
2021-01-30 09:00:00 3.5 12 Nordeste 48 Norte 0.2 -- -- 78
2021-01-30 08:00:00 4.7 10 Este 39 Norte 0 -- -- 69
2021-01-30 07:00:00 5 21 Norte 54 Noroeste 0 -- -- 77
2021-01-30 06:00:00 5.5 16 Norte 50 Nordeste 0 -- -- 74
2021-01-30 05:00:00 5.5 17 Nordeste 48 Norte 0.2 -- -- 76
2021-01-30 04:00:00 5.6 12 Nordeste 49 Norte 1.4 -- -- 83
2021-01-30 03:00:00 6.3 9 Sudeste 33 Sur 0 -- -- 79
2021-01-30 02:00:00 6.3 7 Sudeste 45 Oeste 0 -- -- 84
2021-01-30 01:00:00 6.9 17 Oeste 46 Sudoeste 0 -- -- 78
2021-01-30 00:00:00 8.1 11 Oeste 37 Oeste 0 -- -- 83
2021-01-29 23:00:00 8.5 12 Sudoeste 33 Sur 0 -- -- 81
2021-01-29 22:00:00 9.3 13 Sur 37 Sur 0 -- -- 72
2021-01-29 21:00:00 9.1 7 Sudeste 25 Norte 0 -- -- 72
2021-01-29 20:00:00 10 12 Sur 42 Sudoeste 0 -- -- 70
2021-01-29 19:00:00 10.5 13 Sur 36 Sur 0 -- -- 75
2021-01-29 18:00:00 10.2 15 Sur 33 Sur 0 -- -- 82
2021-01-29 17:00:00 11.1 12 Sur 26 Sudoeste 0 -- -- 77
2021-01-29 16:00:00 10.6 10 Oeste 24 Oeste 0 -- -- 80
2021-01-29 15:00:00 10.8 9 Sudoeste 32 Sur 0 -- -- 80
2021-01-29 14:00:00 10.9 12 Sudoeste 26 Oeste 0 -- -- 80
2021-01-29 13:00:00 10.5 8 Sudoeste 22 Sur 0 -- -- 81
2021-01-29 12:00:00 10.2 9 Sur 18 Sudoeste 0 -- -- 82
2021-01-29 11:00:00 9.9 7 Sudoeste 24 Sudoeste 0 -- -- 84
2021-01-29 10:00:00 9.4 8 Sur 26 Sudoeste 0 -- -- 83
2021-01-29 09:00:00 9.1 5 Noroeste 25 Noroeste 0 -- -- 83
2021-01-29 08:00:00 9.1 9 Sudoeste 26 Oeste 0 -- -- 83
2021-01-29 07:00:00 9.2 10 Oeste 23 Oeste 0 -- -- 83
2021-01-29 06:00:00 9.6 9 Sudoeste 28 Oeste 0 -- -- 82
2021-01-29 05:00:00 9.4 7 Sudoeste 23 Sur 0 -- -- 83
2021-01-29 04:00:00 9.5 8 Sur 24 Sur 0 -- -- 82
2021-01-29 03:00:00 9.1 6 Sudoeste 24 Sudeste 0 -- -- 84
2021-01-29 02:00:00 8.9 3 Sudoeste 30 Sur 0 -- -- 87
2021-01-29 01:00:00 8.9 6 Sur 22 Sur 0 -- -- 87
2021-01-29 00:00:00 9.1 9 Sudoeste 19 Oeste 0 -- -- 87
2021-01-28 23:00:00 9.1 6 Sur 24 Sur 0 -- -- 88
2021-01-28 22:00:00 9.3 7 Oeste 42 Oeste 0 -- -- 84
2021-01-28 21:00:00 10.6 11 Oeste 31 Noroeste 0 -- -- 77
2021-01-28 20:00:00 11 13 Oeste 36 Sur 0.2 -- -- 74
2021-01-28 19:00:00 12 6 Sur 25 Oeste 0 -- -- 73
2021-01-28 18:00:00 12.4 10 Sudoeste 35 Sur 0 -- -- 72
2021-01-28 17:00:00 12.9 13 Sur 45 Sur 0 -- -- 71
2021-01-28 16:00:00 13.4 13 Sur 40 Sur 0 -- -- 71
2021-01-28 15:00:00 13.4 13 Sur 33 Sur 0 -- -- 71
2021-01-28 14:00:00 14.2 7 Sudeste 22 Sudeste 0 -- -- 68
2021-01-28 13:00:00 13.6 7 Sur 28 Sudeste 0 -- -- 69
2021-01-28 12:00:00 12.2 7 Sur 29 Noroeste 0 -- -- 74
2021-01-28 11:00:00 10.7 8 Sur 30 Sur 0 -- -- 79
2021-01-28 10:00:00 10.3 7 Sudoeste 28 Sur 0 -- -- 79
2021-01-28 09:00:00 9.7 9 Sudoeste 20 Sudoeste 0 -- -- 79
2021-01-28 08:00:00 9.7 11 Sudoeste 24 Sur 0 -- -- 78
2021-01-28 07:00:00 9.5 12 Sur 22 Sur 0 -- -- 81
2021-01-28 06:00:00 9.7 5 Sudoeste 19 Oeste 0 -- -- 80
2021-01-28 05:00:00 9.8 8 Sudoeste 24 Sur 0 -- -- 80
2021-01-28 04:00:00 9.7 7 Sudoeste 22 Oeste 0 -- -- 80
2021-01-28 03:00:00 10.2 15 Sudoeste 27 Oeste 0 -- -- 78
2021-01-28 02:00:00 10.1 14 Sudoeste 27 Oeste 0 -- -- 79
2021-01-28 01:00:00 10.1 13 Sudoeste 28 Sur 0 -- -- 81
2021-01-28 00:00:00 10.1 12 Sur 24 Sur 0 -- -- 81
2021-01-27 23:00:00 9.7 0 Calma 21 Sudoeste 0 -- -- 81
2021-01-27 22:00:00 10.5 9 Sudoeste 25 Oeste 0 -- -- 77
2021-01-27 21:00:00 10.7 7 Sur 26 Sur 0 -- -- 79
2021-01-27 20:00:00 11.1 9 Sudoeste 31 Sudoeste 0 -- -- 78
2021-01-27 19:00:00 11.2 9 Sudoeste 24 Oeste 0 -- -- 76
2021-01-27 18:00:00 11 10 Sur 23 Sur 0 -- -- 77
2021-01-27 17:00:00 11.5 9 Sudoeste 21 Sur 0 -- -- 79
2021-01-27 16:00:00 12.2 8 Oeste 29 Oeste 0 -- -- 77
2021-01-27 15:00:00 12.7 9 Sur 25 Noroeste 0 -- -- 75
2021-01-27 14:00:00 13.7 6 Sudoeste 19 Sudoeste 0 -- -- 72
2021-01-27 13:00:00 13.6 11 Sudoeste 22 Sur 0 -- -- 74
2021-01-27 12:00:00 13.2 7 Sur 22 Sur 0 -- -- 73
2021-01-27 11:00:00 12 8 Sur 15 Sur 0 -- -- 82
2021-01-27 10:00:00 10.1 3 Sur 14 Sur 0 -- -- 90
2021-01-27 09:00:00 9.6 4 Sur 13 Sur 0 -- -- 92
2021-01-27 08:00:00 9.7 3 Sudoeste 8 Sudoeste 0 -- -- 92
2021-01-27 07:00:00 9.8 3 Sudeste 12 Norte 0 -- -- 92
2021-01-27 06:00:00 9.9 4 Norte 10 Norte 0 -- -- 92
2021-01-27 05:00:00 9.9 0 Calma 8 Sudeste 0 -- -- 92
2021-01-27 04:00:00 10 4 Nordeste 18 Sudeste 0 -- -- 92
2021-01-27 03:00:00 10.1 6 Nordeste 20 Norte 0 -- -- 92
2021-01-27 02:00:00 10.2 8 Norte 18 Norte 0 -- -- 92
2021-01-27 01:00:00 10.3 4 Este 26 Norte 0.2 -- -- 91
2021-01-27 00:00:00 10.6 6 Nordeste 22 Norte 0.2 -- -- 92
2021-01-26 23:00:00 10.7 6 Nordeste 23 Norte 0.4 -- -- 91
2021-01-26 22:00:00 10.9 6 Nordeste 22 Norte 0.4 -- -- 92
2021-01-26 21:00:00 10.8 2 Sur 17 Norte 1.2 -- -- 92
2021-01-26 20:00:00 10.9 3 Este 15 Norte 0.6 -- -- 92
2021-01-26 19:00:00 10.8 3 Sudeste 9 Sudeste 0.2 -- -- 92
2021-01-26 18:00:00 11 4 Sudeste 11 Sudeste 0 -- -- 91
2021-01-26 17:00:00 11.2 4 Este 12 Norte 0 -- -- 91
2021-01-26 16:00:00 11.2 4 Este 11 Sudeste 0.2 -- -- 92
2021-01-26 15:00:00 11.3 4 Sudeste 8 Sur 0 -- -- 92
2021-01-26 14:00:00 10.8 5 Sudeste 13 Norte 0 -- -- 92
2021-01-26 13:00:00 10.5 4 Este 10 Sudeste 0.4 -- -- 92
2021-01-26 12:00:00 10.1 2 Este 14 Sudoeste 0.2 -- -- 93
2021-01-26 11:00:00 9.6 5 Sudoeste 14 Sur 0.2 -- -- 93
2021-01-26 10:00:00 9.2 4 Sur 7 Sur 0.4 -- -- 93
2021-01-26 09:00:00 8.5 0 Calma 4 Sur 0.2 -- -- 93
2021-01-26 08:00:00 8.2 0 Calma 3 Norte 0 -- -- 93
2021-01-26 07:00:00 8.1 0 Calma 5 Este 0.2 -- -- 93
2021-01-26 06:00:00 8.2 3 Este 6 Sudeste 0.2 -- -- 93
2021-01-26 05:00:00 8 3 Sudeste 8 Sudeste 0.6 -- -- 93
2021-01-26 04:00:00 8 3 Este 8 Sur 0.4 -- -- 93
2021-01-26 03:00:00 8 0 Calma 5 Sur 0.4 -- -- 93
2021-01-26 02:00:00 7.8 0 Calma 5 Sur 0.2 -- -- 93
2021-01-26 01:00:00 7.7 0 Calma 4 Este 0 -- -- 93
2021-01-26 00:00:00 7.7 0 Calma 4 Norte 0.2 -- -- 93
2021-01-25 23:00:00 7.5 0 Calma 3 Oeste 0.2 -- -- 92
2021-01-25 22:00:00 7.5 0 Calma 3 Noroeste 0.2 -- -- 92
2021-01-25 21:00:00 7.5 0 Calma 3 Sudeste 0.4 -- -- 92
2021-01-25 20:00:00 7.5 0 Calma 5 Este 0.6 -- -- 92
2021-01-25 19:00:00 7.6 3 Nordeste 8 Nordeste 0.8 -- -- 92
2021-01-25 18:00:00 7.8 3 Nordeste 8 Este 1 -- -- 91
2021-01-25 17:00:00 8 4 Nordeste 12 Nordeste 0.8 -- -- 91
2021-01-25 16:00:00 7.7 3 Sur 9 Sudeste 1.2 -- -- 91
2021-01-25 15:00:00 7.4 2 Este 19 Nordeste 2.6 -- -- 91
2021-01-25 14:00:00 7.2 7 Nordeste 16 Nordeste 2.8 -- -- 91
2021-01-25 13:00:00 7.5 7 Nordeste 29 Norte 5.2 -- -- 90
2021-01-25 12:00:00 8.7 8 Norte 35 Nordeste 4 -- -- 89
2021-01-25 11:00:00 8.8 16 Norte 43 Norte 2.6 -- -- 88
2021-01-25 10:00:00 8.8 9 Nordeste 31 Nordeste 1.8 -- -- 87
2021-01-25 09:00:00 8.9 11 Nordeste 30 Norte 0.2 -- -- 87
2021-01-25 08:00:00 8.8 13 Nordeste 35 Nordeste 0 -- -- 87
2021-01-25 07:00:00 9.2 11 Nordeste 37 Sur 0.2 -- -- 83
2021-01-25 06:00:00 9 10 Este 32 Nordeste 0.6 -- -- 86
2021-01-25 05:00:00 8.6 12 Sudoeste 45 Sur 1.2 -- -- 86
2021-01-25 04:00:00 8.1 12 Sudoeste 34 Oeste 0.4 -- -- 86
2021-01-25 03:00:00 6.4 6 Este 35 Sur 1.4 -- -- 89
2021-01-25 02:00:00 6.4 18 Sur 39 Sudoeste 0.8 -- -- 89
2021-01-25 01:00:00 5 10 Sudeste 22 Sudeste 0.8 -- -- 91
2021-01-25 00:00:00 4.4 4 Sur 9 Sudeste 1.2 -- -- 90